sensor_id;sensor_type;location;lat;lon;timestamp;P1;durP1;ratioP1;P2;durP2;ratioP2
9328;SDS011;4703;48.748;19.142;2022-09-27T00:01:04;7.43;;;6.57;;
9328;SDS011;4703;48.748;19.142;2022-09-27T00:03:36;5.40;;;4.90;;
9328;SDS011;4703;48.748;19.142;2022-09-27T00:06:06;5.83;;;5.27;;
9328;SDS011;4703;48.748;19.142;2022-09-27T00:08:54;7.47;;;5.77;;
9328;SDS011;4703;48.748;19.142;2022-09-27T00:11:28;6.33;;;5.73;;
9328;SDS011;4703;48.748;19.142;2022-09-27T00:14:00;7.07;;;5.53;;
9328;SDS011;4703;48.748;19.142;2022-09-27T00:16:28;6.67;;;6.07;;
9328;SDS011;4703;48.748;19.142;2022-09-27T00:19:00;6.73;;;6.10;;
9328;SDS011;4703;48.748;19.142;2022-09-27T00:21:35;9.20;;;6.50;;
9328;SDS011;4703;48.748;19.142;2022-09-27T00:24:03;9.07;;;6.00;;
9328;SDS011;4703;48.748;19.142;2022-09-27T00:26:30;6.37;;;5.77;;
9328;SDS011;4703;48.748;19.142;2022-09-27T00:28:58;6.87;;;6.17;;
9328;SDS011;4703;48.748;19.142;2022-09-27T00:31:26;7.97;;;6.67;;
9328;SDS011;4703;48.748;19.142;2022-09-27T00:33:56;8.10;;;7.30;;
9328;SDS011;4703;48.748;19.142;2022-09-27T00:36:28;7.30;;;6.60;;
9328;SDS011;4703;48.748;19.142;2022-09-27T00:38:56;8.77;;;6.37;;
9328;SDS011;4703;48.748;19.142;2022-09-27T00:41:27;7.43;;;6.73;;
9328;SDS011;4703;48.748;19.142;2022-09-27T00:44:01;7.73;;;6.90;;
9328;SDS011;4703;48.748;19.142;2022-09-27T00:46:41;6.83;;;5.90;;
9328;SDS011;4703;48.748;19.142;2022-09-27T00:52:42;6.10;;;5.60;;
9328;SDS011;4703;48.748;19.142;2022-09-27T00:54:58;9.67;;;6.77;;
9328;SDS011;4703;48.748;19.142;2022-09-27T00:57:32;7.30;;;6.60;;
9328;SDS011;4703;48.748;19.142;2022-09-27T01:00:02;6.27;;;5.60;;
9328;SDS011;4703;48.748;19.142;2022-09-27T01:02:36;6.60;;;6.00;;
9328;SDS011;4703;48.748;19.142;2022-09-27T01:05:05;6.10;;;5.07;;
9328;SDS011;4703;48.748;19.142;2022-09-27T01:07:35;5.30;;;4.70;;
9328;SDS011;4703;48.748;19.142;2022-09-27T01:10:02;5.37;;;4.87;;
9328;SDS011;4703;48.748;19.142;2022-09-27T01:15:52;7.17;;;5.90;;
9328;SDS011;4703;48.748;19.142;2022-09-27T01:30:12;8.00;;;5.40;;
9328;SDS011;4703;48.748;19.142;2022-09-27T01:33:11;6.30;;;5.70;;
9328;SDS011;4703;48.748;19.142;2022-09-27T01:41:52;4.73;;;4.33;;
9328;SDS011;4703;48.748;19.142;2022-09-27T01:44:59;5.63;;;5.03;;
9328;SDS011;4703;48.748;19.142;2022-09-27T01:47:36;7.00;;;5.13;;
9328;SDS011;4703;48.748;19.142;2022-09-27T01:50:08;5.63;;;4.27;;
9328;SDS011;4703;48.748;19.142;2022-09-27T01:52:52;6.20;;;5.10;;
9328;SDS011;4703;48.748;19.142;2022-09-27T01:55:27;5.27;;;4.67;;
9328;SDS011;4703;48.748;19.142;2022-09-27T01:58:04;6.03;;;5.40;;
9328;SDS011;4703;48.748;19.142;2022-09-27T02:00:38;4.77;;;4.37;;
9328;SDS011;4703;48.748;19.142;2022-09-27T02:03:19;5.37;;;4.87;;
9328;SDS011;4703;48.748;19.142;2022-09-27T02:08:42;5.17;;;4.67;;
9328;SDS011;4703;48.748;19.142;2022-09-27T02:11:18;6.17;;;5.20;;
9328;SDS011;4703;48.748;19.142;2022-09-27T02:19:37;4.77;;;4.37;;
9328;SDS011;4703;48.748;19.142;2022-09-27T02:27:25;4.67;;;4.27;;
9328;SDS011;4703;48.748;19.142;2022-09-27T02:30:03;7.53;;;5.47;;
9328;SDS011;4703;48.748;19.142;2022-09-27T02:32:37;5.93;;;5.40;;
9328;SDS011;4703;48.748;19.142;2022-09-27T02:35:18;5.87;;;5.00;;
9328;SDS011;4703;48.748;19.142;2022-09-27T02:37:53;5.00;;;4.60;;
9328;SDS011;4703;48.748;19.142;2022-09-27T02:40:21;5.50;;;5.00;;
9328;SDS011;4703;48.748;19.142;2022-09-27T02:42:50;5.43;;;4.87;;
9328;SDS011;4703;48.748;19.142;2022-09-27T02:45:18;6.00;;;4.73;;
9328;SDS011;4703;48.748;19.142;2022-09-27T02:57:36;6.33;;;5.40;;
9328;SDS011;4703;48.748;19.142;2022-09-27T03:00:41;5.17;;;4.50;;
9328;SDS011;4703;48.748;19.142;2022-09-27T03:03:32;5.07;;;4.57;;
9328;SDS011;4703;48.748;19.142;2022-09-27T03:06:22;5.43;;;4.90;;
9328;SDS011;4703;48.748;19.142;2022-09-27T03:08:50;6.10;;;5.50;;
9328;SDS011;4703;48.748;19.142;2022-09-27T03:11:18;5.10;;;4.60;;
9328;SDS011;4703;48.748;19.142;2022-09-27T03:13:45;5.57;;;4.30;;
9328;SDS011;4703;48.748;19.142;2022-09-27T03:16:32;4.90;;;4.40;;
9328;SDS011;4703;48.748;19.142;2022-09-27T03:18:59;5.00;;;4.60;;
9328;SDS011;4703;48.748;19.142;2022-09-27T03:21:26;6.50;;;5.40;;
9328;SDS011;4703;48.748;19.142;2022-09-27T03:23:53;5.17;;;4.70;;
9328;SDS011;4703;48.748;19.142;2022-09-27T03:26:20;5.43;;;4.93;;
9328;SDS011;4703;48.748;19.142;2022-09-27T03:28:47;5.37;;;4.87;;
9328;SDS011;4703;48.748;19.142;2022-09-27T03:31:14;8.70;;;5.10;;
9328;SDS011;4703;48.748;19.142;2022-09-27T03:33:41;5.07;;;4.57;;
9328;SDS011;4703;48.748;19.142;2022-09-27T03:36:08;5.70;;;4.30;;
9328;SDS011;4703;48.748;19.142;2022-09-27T03:38:35;5.00;;;4.60;;
9328;SDS011;4703;48.748;19.142;2022-09-27T03:41:02;5.30;;;4.80;;
9328;SDS011;4703;48.748;19.142;2022-09-27T03:43:30;5.23;;;4.70;;
9328;SDS011;4703;48.748;19.142;2022-09-27T03:45:56;5.50;;;5.00;;
9328;SDS011;4703;48.748;19.142;2022-09-27T03:48:24;6.63;;;5.90;;
9328;SDS011;4703;48.748;19.142;2022-09-27T03:50:53;8.37;;;6.27;;
9328;SDS011;4703;48.748;19.142;2022-09-27T03:53:20;6.70;;;6.00;;
9328;SDS011;4703;48.748;19.142;2022-09-27T03:55:47;10.63;;;6.80;;
9328;SDS011;4703;48.748;19.142;2022-09-27T03:58:14;6.97;;;6.27;;
9328;SDS011;4703;48.748;19.142;2022-09-27T04:00:41;6.43;;;5.60;;
9328;SDS011;4703;48.748;19.142;2022-09-27T04:03:09;6.83;;;6.17;;
9328;SDS011;4703;48.748;19.142;2022-09-27T04:05:37;6.90;;;5.80;;
9328;SDS011;4703;48.748;19.142;2022-09-27T04:08:04;6.77;;;6.13;;
9328;SDS011;4703;48.748;19.142;2022-09-27T04:10:36;5.33;;;4.83;;
9328;SDS011;4703;48.748;19.142;2022-09-27T04:13:03;6.17;;;5.67;;
9328;SDS011;4703;48.748;19.142;2022-09-27T04:15:30;6.07;;;5.47;;
9328;SDS011;4703;48.748;19.142;2022-09-27T04:17:57;5.73;;;5.17;;
9328;SDS011;4703;48.748;19.142;2022-09-27T04:20:24;6.10;;;5.50;;
9328;SDS011;4703;48.748;19.142;2022-09-27T04:22:51;9.63;;;6.00;;
9328;SDS011;4703;48.748;19.142;2022-09-27T04:25:18;5.97;;;5.37;;
9328;SDS011;4703;48.748;19.142;2022-09-27T04:27:45;7.47;;;5.20;;
9328;SDS011;4703;48.748;19.142;2022-09-27T04:30:13;8.37;;;5.93;;
9328;SDS011;4703;48.748;19.142;2022-09-27T04:32:42;5.87;;;5.30;;
9328;SDS011;4703;48.748;19.142;2022-09-27T04:35:10;6.97;;;5.60;;
9328;SDS011;4703;48.748;19.142;2022-09-27T04:37:56;7.67;;;6.97;;
9328;SDS011;4703;48.748;19.142;2022-09-27T04:40:25;6.30;;;5.70;;
9328;SDS011;4703;48.748;19.142;2022-09-27T04:42:52;5.97;;;5.47;;
9328;SDS011;4703;48.748;19.142;2022-09-27T04:45:19;6.00;;;5.40;;
9328;SDS011;4703;48.748;19.142;2022-09-27T04:47:47;5.93;;;5.33;;
9328;SDS011;4703;48.748;19.142;2022-09-27T04:50:15;5.17;;;4.77;;
9328;SDS011;4703;48.748;19.142;2022-09-27T04:52:43;5.90;;;5.30;;
9328;SDS011;4703;48.748;19.142;2022-09-27T04:55:15;5.23;;;4.73;;
9328;SDS011;4703;48.748;19.142;2022-09-27T04:57:42;8.27;;;5.10;;
9328;SDS011;4703;48.748;19.142;2022-09-27T05:00:10;5.90;;;5.40;;
9328;SDS011;4703;48.748;19.142;2022-09-27T05:02:37;7.00;;;5.50;;
9328;SDS011;4703;48.748;19.142;2022-09-27T05:05:04;5.47;;;4.93;;
9328;SDS011;4703;48.748;19.142;2022-09-27T05:07:32;5.43;;;4.93;;
9328;SDS011;4703;48.748;19.142;2022-09-27T05:10:00;6.63;;;5.37;;
9328;SDS011;4703;48.748;19.142;2022-09-27T05:12:27;6.10;;;5.53;;
9328;SDS011;4703;48.748;19.142;2022-09-27T05:14:54;7.50;;;5.23;;
9328;SDS011;4703;48.748;19.142;2022-09-27T05:17:21;5.80;;;5.30;;
9328;SDS011;4703;48.748;19.142;2022-09-27T05:19:48;44.33;;;33.13;;
9328;SDS011;4703;48.748;19.142;2022-09-27T05:22:16;33.40;;;24.40;;
9328;SDS011;4703;48.748;19.142;2022-09-27T05:24:44;29.37;;;19.30;;
9328;SDS011;4703;48.748;19.142;2022-09-27T05:27:13;33.73;;;24.93;;
9328;SDS011;4703;48.748;19.142;2022-09-27T05:29:43;26.23;;;20.93;;
9328;SDS011;4703;48.748;19.142;2022-09-27T05:32:11;16.43;;;14.40;;
9328;SDS011;4703;48.748;19.142;2022-09-27T05:34:38;7.80;;;7.00;;
9328;SDS011;4703;48.748;19.142;2022-09-27T05:37:05;8.20;;;6.37;;
9328;SDS011;4703;48.748;19.142;2022-09-27T05:39:31;6.87;;;6.13;;
9328;SDS011;4703;48.748;19.142;2022-09-27T05:41:58;5.60;;;5.10;;
9328;SDS011;4703;48.748;19.142;2022-09-27T05:44:25;6.73;;;6.13;;
9328;SDS011;4703;48.748;19.142;2022-09-27T05:46:52;9.00;;;5.80;;
9328;SDS011;4703;48.748;19.142;2022-09-27T05:49:19;6.30;;;5.70;;
9328;SDS011;4703;48.748;19.142;2022-09-27T05:51:46;8.50;;;5.30;;
9328;SDS011;4703;48.748;19.142;2022-09-27T05:54:13;7.33;;;6.63;;
9328;SDS011;4703;48.748;19.142;2022-09-27T05:56:40;10.07;;;5.23;;
9328;SDS011;4703;48.748;19.142;2022-09-27T05:59:07;6.87;;;6.17;;
9328;SDS011;4703;48.748;19.142;2022-09-27T06:01:34;6.10;;;5.50;;
9328;SDS011;4703;48.748;19.142;2022-09-27T06:04:02;5.20;;;4.70;;
9328;SDS011;4703;48.748;19.142;2022-09-27T06:06:31;5.80;;;5.20;;
9328;SDS011;4703;48.748;19.142;2022-09-27T06:09:01;6.10;;;5.33;;
9328;SDS011;4703;48.748;19.142;2022-09-27T06:11:28;5.70;;;5.10;;
9328;SDS011;4703;48.748;19.142;2022-09-27T06:13:56;6.60;;;5.60;;
9328;SDS011;4703;48.748;19.142;2022-09-27T06:16:23;5.13;;;4.73;;
9328;SDS011;4703;48.748;19.142;2022-09-27T06:18:50;5.33;;;4.93;;
9328;SDS011;4703;48.748;19.142;2022-09-27T06:21:17;6.27;;;5.77;;
9328;SDS011;4703;48.748;19.142;2022-09-27T06:23:44;53.30;;;39.40;;
9328;SDS011;4703;48.748;19.142;2022-09-27T06:26:14;26.20;;;21.60;;
9328;SDS011;4703;48.748;19.142;2022-09-27T06:28:41;14.30;;;12.33;;
9328;SDS011;4703;48.748;19.142;2022-09-27T06:31:10;9.27;;;8.37;;
9328;SDS011;4703;48.748;19.142;2022-09-27T06:33:37;7.53;;;6.40;;
9328;SDS011;4703;48.748;19.142;2022-09-27T06:36:05;7.90;;;6.77;;
9328;SDS011;4703;48.748;19.142;2022-09-27T06:38:33;7.70;;;7.00;;
9328;SDS011;4703;48.748;19.142;2022-09-27T06:41:01;7.00;;;6.30;;
9328;SDS011;4703;48.748;19.142;2022-09-27T06:43:32;8.37;;;6.90;;
9328;SDS011;4703;48.748;19.142;2022-09-27T06:45:59;6.73;;;6.13;;
9328;SDS011;4703;48.748;19.142;2022-09-27T06:48:31;10.87;;;7.97;;
9328;SDS011;4703;48.748;19.142;2022-09-27T06:50:59;8.63;;;7.80;;
9328;SDS011;4703;48.748;19.142;2022-09-27T06:53:26;8.20;;;7.47;;
9328;SDS011;4703;48.748;19.142;2022-09-27T06:55:59;7.70;;;7.00;;
9328;SDS011;4703;48.748;19.142;2022-09-27T06:58:27;6.93;;;6.23;;
9328;SDS011;4703;48.748;19.142;2022-09-27T07:01:13;8.93;;;7.37;;
9328;SDS011;4703;48.748;19.142;2022-09-27T07:03:40;7.07;;;6.47;;
9328;SDS011;4703;48.748;19.142;2022-09-27T07:06:11;6.93;;;6.33;;
9328;SDS011;4703;48.748;19.142;2022-09-27T07:08:48;7.40;;;6.70;;
9328;SDS011;4703;48.748;19.142;2022-09-27T07:11:17;8.60;;;6.47;;
9328;SDS011;4703;48.748;19.142;2022-09-27T07:13:45;7.10;;;6.40;;
9328;SDS011;4703;48.748;19.142;2022-09-27T07:16:12;7.60;;;6.87;;
9328;SDS011;4703;48.748;19.142;2022-09-27T07:18:40;6.50;;;5.90;;
9328;SDS011;4703;48.748;19.142;2022-09-27T07:21:08;7.53;;;6.83;;
9328;SDS011;4703;48.748;19.142;2022-09-27T07:23:35;7.67;;;6.67;;
9328;SDS011;4703;48.748;19.142;2022-09-27T07:26:03;8.70;;;7.80;;
9328;SDS011;4703;48.748;19.142;2022-09-27T07:28:32;7.93;;;7.23;;
9328;SDS011;4703;48.748;19.142;2022-09-27T07:31:00;7.80;;;7.00;;
9328;SDS011;4703;48.748;19.142;2022-09-27T07:33:29;11.47;;;6.97;;
9328;SDS011;4703;48.748;19.142;2022-09-27T07:35:57;8.00;;;7.20;;
9328;SDS011;4703;48.748;19.142;2022-09-27T07:38:24;9.30;;;8.30;;
9328;SDS011;4703;48.748;19.142;2022-09-27T07:40:51;10.30;;;8.17;;
9328;SDS011;4703;48.748;19.142;2022-09-27T07:43:19;9.07;;;7.07;;
9328;SDS011;4703;48.748;19.142;2022-09-27T07:45:46;12.73;;;10.47;;
9328;SDS011;4703;48.748;19.142;2022-09-27T07:48:14;10.43;;;9.33;;
9328;SDS011;4703;48.748;19.142;2022-09-27T07:50:41;9.70;;;8.63;;
9328;SDS011;4703;48.748;19.142;2022-09-27T07:53:10;8.10;;;7.30;;
9328;SDS011;4703;48.748;19.142;2022-09-27T07:55:39;8.30;;;7.47;;
9328;SDS011;4703;48.748;19.142;2022-09-27T07:58:08;11.77;;;7.60;;
9328;SDS011;4703;48.748;19.142;2022-09-27T08:00:37;9.87;;;7.50;;
9328;SDS011;4703;48.748;19.142;2022-09-27T08:03:07;9.93;;;8.90;;
9328;SDS011;4703;48.748;19.142;2022-09-27T08:05:45;8.50;;;7.60;;
9328;SDS011;4703;48.748;19.142;2022-09-27T08:08:14;14.43;;;7.90;;
9328;SDS011;4703;48.748;19.142;2022-09-27T08:10:42;72.57;;;51.00;;
9328;SDS011;4703;48.748;19.142;2022-09-27T08:13:09;42.70;;;33.73;;
9328;SDS011;4703;48.748;19.142;2022-09-27T08:15:37;14.20;;;12.67;;
9328;SDS011;4703;48.748;19.142;2022-09-27T08:18:04;10.27;;;9.27;;
9328;SDS011;4703;48.748;19.142;2022-09-27T08:20:34;8.43;;;7.63;;
9328;SDS011;4703;48.748;19.142;2022-09-27T08:23:01;8.90;;;8.00;;
9328;SDS011;4703;48.748;19.142;2022-09-27T08:25:29;9.73;;;8.73;;
9328;SDS011;4703;48.748;19.142;2022-09-27T08:27:57;10.80;;;9.70;;
9328;SDS011;4703;48.748;19.142;2022-09-27T08:30:27;8.47;;;7.53;;
9328;SDS011;4703;48.748;19.142;2022-09-27T08:32:57;11.60;;;8.40;;
9328;SDS011;4703;48.748;19.142;2022-09-27T08:35:26;9.87;;;7.20;;
9328;SDS011;4703;48.748;19.142;2022-09-27T08:37:58;7.57;;;6.77;;
9328;SDS011;4703;48.748;19.142;2022-09-27T08:40:30;9.17;;;7.63;;
9328;SDS011;4703;48.748;19.142;2022-09-27T08:49:04;6.83;;;6.23;;
9328;SDS011;4703;48.748;19.142;2022-09-27T08:51:40;6.40;;;5.80;;
9328;SDS011;4703;48.748;19.142;2022-09-27T08:54:15;8.43;;;6.47;;
9328;SDS011;4703;48.748;19.142;2022-09-27T08:56:52;9.63;;;8.40;;
9328;SDS011;4703;48.748;19.142;2022-09-27T08:59:46;40.17;;;30.87;;
9328;SDS011;4703;48.748;19.142;2022-09-27T09:02:36;47.20;;;33.67;;
9328;SDS011;4703;48.748;19.142;2022-09-27T09:05:11;60.60;;;48.40;;
9328;SDS011;4703;48.748;19.142;2022-09-27T09:08:06;43.40;;;34.80;;
9328;SDS011;4703;48.748;19.142;2022-09-27T09:10:56;17.27;;;15.37;;
9328;SDS011;4703;48.748;19.142;2022-09-27T09:20:08;7.20;;;6.60;;
9328;SDS011;4703;48.748;19.142;2022-09-27T09:23:20;7.03;;;6.33;;
9328;SDS011;4703;48.748;19.142;2022-09-27T09:34:52;8.77;;;7.87;;
9328;SDS011;4703;48.748;19.142;2022-09-27T09:37:10;6.50;;;5.90;;
9328;SDS011;4703;48.748;19.142;2022-09-27T09:40:15;30.67;;;21.93;;
9328;SDS011;4703;48.748;19.142;2022-09-27T09:43:17;52.33;;;41.17;;
9328;SDS011;4703;48.748;19.142;2022-09-27T09:46:06;18.63;;;16.13;;
9328;SDS011;4703;48.748;19.142;2022-09-27T09:49:13;10.03;;;9.00;;
9328;SDS011;4703;48.748;19.142;2022-09-27T09:52:04;8.60;;;7.00;;
9328;SDS011;4703;48.748;19.142;2022-09-27T09:54:49;7.80;;;7.10;;
9328;SDS011;4703;48.748;19.142;2022-09-27T09:57:31;8.70;;;7.40;;
9328;SDS011;4703;48.748;19.142;2022-09-27T10:00:05;8.73;;;6.93;;
9328;SDS011;4703;48.748;19.142;2022-09-27T10:02:43;8.13;;;7.33;;
9328;SDS011;4703;48.748;19.142;2022-09-27T10:05:16;10.97;;;9.97;;
9328;SDS011;4703;48.748;19.142;2022-09-27T10:07:46;11.97;;;10.60;;
9328;SDS011;4703;48.748;19.142;2022-09-27T10:10:16;13.50;;;10.47;;
9328;SDS011;4703;48.748;19.142;2022-09-27T10:12:46;11.57;;;10.43;;
9328;SDS011;4703;48.748;19.142;2022-09-27T10:15:18;12.27;;;10.50;;
9328;SDS011;4703;48.748;19.142;2022-09-27T10:17:49;11.67;;;10.50;;
9328;SDS011;4703;48.748;19.142;2022-09-27T10:23:12;10.17;;;9.17;;
9328;SDS011;4703;48.748;19.142;2022-09-27T10:25:57;10.70;;;9.60;;
9328;SDS011;4703;48.748;19.142;2022-09-27T10:31:12;11.57;;;9.10;;
9328;SDS011;4703;48.748;19.142;2022-09-27T10:33:53;12.53;;;10.37;;
9328;SDS011;4703;48.748;19.142;2022-09-27T10:36:29;16.20;;;12.83;;
9328;SDS011;4703;48.748;19.142;2022-09-27T10:39:04;13.97;;;10.40;;
9328;SDS011;4703;48.748;19.142;2022-09-27T10:41:36;10.53;;;9.43;;
9328;SDS011;4703;48.748;19.142;2022-09-27T10:47:28;9.27;;;8.30;;
9328;SDS011;4703;48.748;19.142;2022-09-27T10:49:34;8.80;;;7.70;;
9328;SDS011;4703;48.748;19.142;2022-09-27T10:52:06;8.47;;;7.67;;
9328;SDS011;4703;48.748;19.142;2022-09-27T10:54:51;8.87;;;7.93;;
9328;SDS011;4703;48.748;19.142;2022-09-27T10:57:23;8.63;;;7.73;;
9328;SDS011;4703;48.748;19.142;2022-09-27T10:59:54;11.80;;;9.73;;
9328;SDS011;4703;48.748;19.142;2022-09-27T11:02:32;11.37;;;9.90;;
9328;SDS011;4703;48.748;19.142;2022-09-27T11:07:31;12.10;;;10.07;;
9328;SDS011;4703;48.748;19.142;2022-09-27T11:10:14;9.33;;;8.43;;
9328;SDS011;4703;48.748;19.142;2022-09-27T11:13:18;11.17;;;9.90;;
9328;SDS011;4703;48.748;19.142;2022-09-27T11:15:59;11.13;;;10.03;;
9328;SDS011;4703;48.748;19.142;2022-09-27T11:27:27;10.80;;;9.70;;
9328;SDS011;4703;48.748;19.142;2022-09-27T11:30:55;11.60;;;10.30;;
9328;SDS011;4703;48.748;19.142;2022-09-27T11:39:54;12.13;;;10.13;;
9328;SDS011;4703;48.748;19.142;2022-09-27T11:57:42;13.10;;;11.20;;
9328;SDS011;4703;48.748;19.142;2022-09-27T12:06:57;13.77;;;12.23;;
9328;SDS011;4703;48.748;19.142;2022-09-27T12:09:56;14.00;;;12.50;;
9328;SDS011;4703;48.748;19.142;2022-09-27T12:12:30;16.30;;;13.10;;
9328;SDS011;4703;48.748;19.142;2022-09-27T12:15:01;17.03;;;14.10;;
9328;SDS011;4703;48.748;19.142;2022-09-27T12:17:33;21.20;;;13.93;;
9328;SDS011;4703;48.748;19.142;2022-09-27T12:20:06;15.63;;;13.10;;
9328;SDS011;4703;48.748;19.142;2022-09-27T12:22:52;17.80;;;12.90;;
9328;SDS011;4703;48.748;19.142;2022-09-27T12:25:27;18.20;;;13.30;;
9328;SDS011;4703;48.748;19.142;2022-09-27T12:28:01;17.87;;;14.40;;
9328;SDS011;4703;48.748;19.142;2022-09-27T12:30:36;17.03;;;13.73;;
9328;SDS011;4703;48.748;19.142;2022-09-27T12:33:21;18.00;;;13.83;;
9328;SDS011;4703;48.748;19.142;2022-09-27T12:36:03;17.10;;;14.30;;
9328;SDS011;4703;48.748;19.142;2022-09-27T12:41:38;22.57;;;15.73;;
9328;SDS011;4703;48.748;19.142;2022-09-27T12:44:11;21.10;;;15.10;;
9328;SDS011;4703;48.748;19.142;2022-09-27T12:50:15;16.37;;;13.20;;
9328;SDS011;4703;48.748;19.142;2022-09-27T12:52:39;19.10;;;15.00;;
9328;SDS011;4703;48.748;19.142;2022-09-27T12:58:09;19.00;;;14.43;;
9328;SDS011;4703;48.748;19.142;2022-09-27T13:07:25;20.67;;;15.57;;
9328;SDS011;4703;48.748;19.142;2022-09-27T13:10:39;16.20;;;12.53;;
9328;SDS011;4703;48.748;19.142;2022-09-27T13:13:35;20.17;;;14.93;;
9328;SDS011;4703;48.748;19.142;2022-09-27T13:16:04;19.43;;;14.53;;
9328;SDS011;4703;48.748;19.142;2022-09-27T13:22:00;17.33;;;14.60;;
9328;SDS011;4703;48.748;19.142;2022-09-27T13:32:38;24.17;;;18.93;;
9328;SDS011;4703;48.748;19.142;2022-09-27T13:35:24;21.50;;;16.60;;
9328;SDS011;4703;48.748;19.142;2022-09-27T13:37:55;20.60;;;15.97;;
9328;SDS011;4703;48.748;19.142;2022-09-27T13:40:37;21.00;;;15.87;;
9328;SDS011;4703;48.748;19.142;2022-09-27T13:45:38;20.00;;;15.30;;
9328;SDS011;4703;48.748;19.142;2022-09-27T13:54:05;22.87;;;16.47;;
9328;SDS011;4703;48.748;19.142;2022-09-27T13:57:01;17.40;;;14.10;;
9328;SDS011;4703;48.748;19.142;2022-09-27T13:59:41;18.13;;;15.30;;
9328;SDS011;4703;48.748;19.142;2022-09-27T14:02:19;17.83;;;14.20;;
9328;SDS011;4703;48.748;19.142;2022-09-27T14:04:51;17.80;;;14.73;;
9328;SDS011;4703;48.748;19.142;2022-09-27T14:07:23;16.20;;;13.17;;
9328;SDS011;4703;48.748;19.142;2022-09-27T14:10:04;16.63;;;13.70;;
9328;SDS011;4703;48.748;19.142;2022-09-27T14:12:33;19.17;;;13.93;;
9328;SDS011;4703;48.748;19.142;2022-09-27T14:15:03;16.60;;;13.13;;
9328;SDS011;4703;48.748;19.142;2022-09-27T14:17:33;15.40;;;12.20;;
9328;SDS011;4703;48.748;19.142;2022-09-27T14:20:00;15.13;;;13.17;;
9328;SDS011;4703;48.748;19.142;2022-09-27T14:22:28;15.60;;;12.17;;
9328;SDS011;4703;48.748;19.142;2022-09-27T14:24:55;13.60;;;11.70;;
9328;SDS011;4703;48.748;19.142;2022-09-27T14:27:27;9.70;;;8.67;;
9328;SDS011;4703;48.748;19.142;2022-09-27T14:30:09;7.33;;;6.27;;
9328;SDS011;4703;48.748;19.142;2022-09-27T14:32:47;6.20;;;5.60;;
9328;SDS011;4703;48.748;19.142;2022-09-27T14:35:18;6.77;;;6.07;;
9328;SDS011;4703;48.748;19.142;2022-09-27T14:38:10;7.53;;;5.87;;
9328;SDS011;4703;48.748;19.142;2022-09-27T14:41:03;7.03;;;6.10;;
9328;SDS011;4703;48.748;19.142;2022-09-27T14:43:40;9.63;;;6.90;;
9328;SDS011;4703;48.748;19.142;2022-09-27T14:46:24;7.40;;;6.70;;
9328;SDS011;4703;48.748;19.142;2022-09-27T14:48:53;7.10;;;6.30;;
9328;SDS011;4703;48.748;19.142;2022-09-27T14:51:29;7.60;;;6.80;;
9328;SDS011;4703;48.748;19.142;2022-09-27T14:53:58;10.63;;;8.17;;
9328;SDS011;4703;48.748;19.142;2022-09-27T14:56:29;19.10;;;12.30;;
9328;SDS011;4703;48.748;19.142;2022-09-27T14:59:15;14.43;;;10.90;;
9328;SDS011;4703;48.748;19.142;2022-09-27T15:02:08;14.00;;;12.50;;
9328;SDS011;4703;48.748;19.142;2022-09-27T15:04:43;14.07;;;12.20;;
9328;SDS011;4703;48.748;19.142;2022-09-27T15:07:12;25.00;;;21.13;;
9328;SDS011;4703;48.748;19.142;2022-09-27T15:09:42;29.67;;;24.50;;
9328;SDS011;4703;48.748;19.142;2022-09-27T15:12:15;11.23;;;9.50;;
9328;SDS011;4703;48.748;19.142;2022-09-27T15:14:53;3.23;;;2.70;;
9328;SDS011;4703;48.748;19.142;2022-09-27T15:17:23;4.70;;;4.30;;
9328;SDS011;4703;48.748;19.142;2022-09-27T15:19:58;2.10;;;2.00;;
9328;SDS011;4703;48.748;19.142;2022-09-27T15:22:47;1.40;;;1.30;;
9328;SDS011;4703;48.748;19.142;2022-09-27T15:25:33;1.57;;;1.47;;
9328;SDS011;4703;48.748;19.142;2022-09-27T15:30:38;1.80;;;1.70;;
9328;SDS011;4703;48.748;19.142;2022-09-27T15:33:17;1.37;;;1.27;;
9328;SDS011;4703;48.748;19.142;2022-09-27T15:35:53;2.80;;;2.50;;
9328;SDS011;4703;48.748;19.142;2022-09-27T15:41:14;2.23;;;2.03;;
9328;SDS011;4703;48.748;19.142;2022-09-27T15:43:47;2.40;;;2.20;;
9328;SDS011;4703;48.748;19.142;2022-09-27T15:49:17;2.90;;;2.63;;
9328;SDS011;4703;48.748;19.142;2022-09-27T15:51:48;3.60;;;3.30;;
9328;SDS011;4703;48.748;19.142;2022-09-27T15:54:21;6.40;;;4.70;;
9328;SDS011;4703;48.748;19.142;2022-09-27T15:56:51;6.10;;;5.50;;
9328;SDS011;4703;48.748;19.142;2022-09-27T15:59:22;6.50;;;5.40;;
9328;SDS011;4703;48.748;19.142;2022-09-27T16:01:56;5.80;;;4.80;;
9328;SDS011;4703;48.748;19.142;2022-09-27T16:04:32;4.60;;;4.20;;
9328;SDS011;4703;48.748;19.142;2022-09-27T16:06:59;4.43;;;4.03;;
9328;SDS011;4703;48.748;19.142;2022-09-27T16:09:27;25.03;;;22.43;;
9328;SDS011;4703;48.748;19.142;2022-09-27T16:11:54;44.20;;;32.87;;
9328;SDS011;4703;48.748;19.142;2022-09-27T16:14:21;35.03;;;27.17;;
9328;SDS011;4703;48.748;19.142;2022-09-27T16:16:49;11.80;;;10.60;;
9328;SDS011;4703;48.748;19.142;2022-09-27T16:19:23;5.97;;;4.83;;
9328;SDS011;4703;48.748;19.142;2022-09-27T16:21:52;5.90;;;4.13;;
9328;SDS011;4703;48.748;19.142;2022-09-27T16:24:19;6.20;;;4.70;;
9328;SDS011;4703;48.748;19.142;2022-09-27T16:26:46;34.67;;;28.43;;
9328;SDS011;4703;48.748;19.142;2022-09-27T16:29:13;14.00;;;12.50;;
9328;SDS011;4703;48.748;19.142;2022-09-27T16:31:41;13.90;;;11.03;;
9328;SDS011;4703;48.748;19.142;2022-09-27T16:34:08;9.87;;;8.87;;
9328;SDS011;4703;48.748;19.142;2022-09-27T16:36:36;5.97;;;5.37;;
9328;SDS011;4703;48.748;19.142;2022-09-27T16:39:09;8.03;;;7.10;;
9328;SDS011;4703;48.748;19.142;2022-09-27T16:41:38;7.47;;;6.77;;
9328;SDS011;4703;48.748;19.142;2022-09-27T16:44:09;7.63;;;6.83;;
9328;SDS011;4703;48.748;19.142;2022-09-27T16:46:39;13.43;;;11.20;;
9328;SDS011;4703;48.748;19.142;2022-09-27T16:49:08;11.37;;;9.53;;
9328;SDS011;4703;48.748;19.142;2022-09-27T16:51:55;6.00;;;5.40;;
9328;SDS011;4703;48.748;19.142;2022-09-27T16:54:26;6.67;;;5.03;;
9328;SDS011;4703;48.748;19.142;2022-09-27T16:56:54;6.10;;;4.67;;
9328;SDS011;4703;48.748;19.142;2022-09-27T16:59:23;5.30;;;4.80;;
9328;SDS011;4703;48.748;19.142;2022-09-27T17:01:50;4.50;;;4.10;;
9328;SDS011;4703;48.748;19.142;2022-09-27T17:04:18;6.30;;;4.80;;
9328;SDS011;4703;48.748;19.142;2022-09-27T17:06:45;4.17;;;3.73;;
9328;SDS011;4703;48.748;19.142;2022-09-27T17:09:12;3.80;;;2.10;;
9328;SDS011;4703;48.748;19.142;2022-09-27T17:11:39;2.27;;;2.10;;
9328;SDS011;4703;48.748;19.142;2022-09-27T17:14:06;2.83;;;2.37;;
9328;SDS011;4703;48.748;19.142;2022-09-27T17:16:36;2.60;;;2.40;;
9328;SDS011;4703;48.748;19.142;2022-09-27T17:19:03;4.40;;;4.00;;
9328;SDS011;4703;48.748;19.142;2022-09-27T17:21:30;4.67;;;4.27;;
9328;SDS011;4703;48.748;19.142;2022-09-27T17:24:03;3.80;;;3.40;;
9328;SDS011;4703;48.748;19.142;2022-09-27T17:26:30;4.50;;;3.70;;
9328;SDS011;4703;48.748;19.142;2022-09-27T17:28:58;4.17;;;3.77;;
9328;SDS011;4703;48.748;19.142;2022-09-27T17:31:26;3.70;;;3.03;;
9328;SDS011;4703;48.748;19.142;2022-09-27T17:33:56;4.30;;;3.87;;
9328;SDS011;4703;48.748;19.142;2022-09-27T17:36:26;4.60;;;4.00;;
9328;SDS011;4703;48.748;19.142;2022-09-27T17:38:56;4.50;;;4.10;;
9328;SDS011;4703;48.748;19.142;2022-09-27T17:41:25;6.90;;;3.80;;
9328;SDS011;4703;48.748;19.142;2022-09-27T17:43:54;15.53;;;13.13;;
9328;SDS011;4703;48.748;19.142;2022-09-27T17:46:25;23.97;;;18.63;;
9328;SDS011;4703;48.748;19.142;2022-09-27T17:48:57;33.80;;;26.30;;
9328;SDS011;4703;48.748;19.142;2022-09-27T17:51:47;10.73;;;8.37;;
9328;SDS011;4703;48.748;19.142;2022-09-27T17:54:17;4.53;;;4.13;;
9328;SDS011;4703;48.748;19.142;2022-09-27T17:56:46;5.43;;;3.47;;
9328;SDS011;4703;48.748;19.142;2022-09-27T17:59:13;3.90;;;3.50;;
9328;SDS011;4703;48.748;19.142;2022-09-27T18:01:42;4.87;;;4.40;;
9328;SDS011;4703;48.748;19.142;2022-09-27T18:04:13;5.60;;;5.10;;
9328;SDS011;4703;48.748;19.142;2022-09-27T18:06:43;5.10;;;4.60;;
9328;SDS011;4703;48.748;19.142;2022-09-27T18:09:13;7.53;;;6.80;;